sensor_id;sensor_type;location;lat;lon;timestamp;P1;durP1;ratioP1;P2;durP2;ratioP2
2602;SDS011;1311;47.966;7.958;2023-08-01T00:00:34;4.70;;;3.70;;
2602;SDS011;1311;47.966;7.958;2023-08-01T00:03:01;3.83;;;3.43;;
2602;SDS011;1311;47.966;7.958;2023-08-01T00:05:27;6.27;;;3.83;;
2602;SDS011;1311;47.966;7.958;2023-08-01T00:07:54;5.50;;;3.80;;
2602;SDS011;1311;47.966;7.958;2023-08-01T00:10:23;6.30;;;3.83;;
2602;SDS011;1311;47.966;7.958;2023-08-01T00:12:49;5.17;;;3.40;;
2602;SDS011;1311;47.966;7.958;2023-08-01T00:15:16;6.23;;;4.13;;
2602;SDS011;1311;47.966;7.958;2023-08-01T00:17:43;5.20;;;3.07;;
2602;SDS011;1311;47.966;7.958;2023-08-01T00:20:10;5.67;;;3.50;;
2602;SDS011;1311;47.966;7.958;2023-08-01T00:22:37;4.70;;;3.90;;
2602;SDS011;1311;47.966;7.958;2023-08-01T00:25:04;6.07;;;4.17;;
2602;SDS011;1311;47.966;7.958;2023-08-01T00:27:33;4.30;;;3.47;;
2602;SDS011;1311;47.966;7.958;2023-08-01T00:30:00;5.20;;;4.40;;
2602;SDS011;1311;47.966;7.958;2023-08-01T00:32:26;4.10;;;3.53;;
2602;SDS011;1311;47.966;7.958;2023-08-01T00:34:53;4.80;;;3.70;;
2602;SDS011;1311;47.966;7.958;2023-08-01T00:37:20;5.07;;;3.77;;
2602;SDS011;1311;47.966;7.958;2023-08-01T00:39:46;5.80;;;4.13;;
2602;SDS011;1311;47.966;7.958;2023-08-01T00:42:13;5.60;;;3.93;;
2602;SDS011;1311;47.966;7.958;2023-08-01T00:44:42;6.93;;;4.20;;
2602;SDS011;1311;47.966;7.958;2023-08-01T00:47:09;4.47;;;3.87;;
2602;SDS011;1311;47.966;7.958;2023-08-01T00:49:36;4.37;;;3.77;;
2602;SDS011;1311;47.966;7.958;2023-08-01T00:52:03;7.23;;;4.37;;
2602;SDS011;1311;47.966;7.958;2023-08-01T00:54:31;4.97;;;3.73;;
2602;SDS011;1311;47.966;7.958;2023-08-01T00:57:01;3.87;;;3.30;;
2602;SDS011;1311;47.966;7.958;2023-08-01T00:59:28;5.90;;;4.10;;
2602;SDS011;1311;47.966;7.958;2023-08-01T01:01:56;7.23;;;4.00;;
2602;SDS011;1311;47.966;7.958;2023-08-01T01:04:24;4.67;;;3.47;;
2602;SDS011;1311;47.966;7.958;2023-08-01T01:06:52;7.10;;;4.40;;
2602;SDS011;1311;47.966;7.958;2023-08-01T01:09:27;6.40;;;4.20;;
2602;SDS011;1311;47.966;7.958;2023-08-01T01:11:56;5.63;;;4.03;;
2602;SDS011;1311;47.966;7.958;2023-08-01T01:14:23;3.70;;;3.27;;
2602;SDS011;1311;47.966;7.958;2023-08-01T01:16:50;6.10;;;4.40;;
2602;SDS011;1311;47.966;7.958;2023-08-01T01:19:18;5.03;;;4.50;;
2602;SDS011;1311;47.966;7.958;2023-08-01T01:21:47;6.43;;;4.00;;
2602;SDS011;1311;47.966;7.958;2023-08-01T01:24:14;6.23;;;3.50;;
2602;SDS011;1311;47.966;7.958;2023-08-01T01:26:43;6.53;;;4.10;;
2602;SDS011;1311;47.966;7.958;2023-08-01T01:29:12;4.57;;;3.60;;
2602;SDS011;1311;47.966;7.958;2023-08-01T01:31:39;4.60;;;3.60;;
2602;SDS011;1311;47.966;7.958;2023-08-01T01:34:07;4.10;;;3.40;;
2602;SDS011;1311;47.966;7.958;2023-08-01T01:36:34;4.87;;;3.33;;
2602;SDS011;1311;47.966;7.958;2023-08-01T01:39:02;5.67;;;3.13;;
2602;SDS011;1311;47.966;7.958;2023-08-01T01:41:29;3.90;;;3.23;;
2602;SDS011;1311;47.966;7.958;2023-08-01T01:43:56;4.43;;;3.23;;
2602;SDS011;1311;47.966;7.958;2023-08-01T01:46:22;4.37;;;3.47;;
2602;SDS011;1311;47.966;7.958;2023-08-01T01:48:49;4.90;;;2.90;;
2602;SDS011;1311;47.966;7.958;2023-08-01T01:51:16;4.73;;;3.10;;
2602;SDS011;1311;47.966;7.958;2023-08-01T01:53:43;6.90;;;3.13;;
2602;SDS011;1311;47.966;7.958;2023-08-01T01:56:11;4.30;;;3.03;;
2602;SDS011;1311;47.966;7.958;2023-08-01T01:58:37;5.43;;;3.43;;
2602;SDS011;1311;47.966;7.958;2023-08-01T02:01:04;3.83;;;2.90;;
2602;SDS011;1311;47.966;7.958;2023-08-01T02:03:31;4.53;;;2.83;;
2602;SDS011;1311;47.966;7.958;2023-08-01T02:05:57;4.13;;;3.60;;
2602;SDS011;1311;47.966;7.958;2023-08-01T02:08:24;4.20;;;3.10;;
2602;SDS011;1311;47.966;7.958;2023-08-01T02:10:51;3.80;;;2.60;;
2602;SDS011;1311;47.966;7.958;2023-08-01T02:13:19;6.60;;;2.90;;
2602;SDS011;1311;47.966;7.958;2023-08-01T02:15:46;5.50;;;2.90;;
2602;SDS011;1311;47.966;7.958;2023-08-01T02:18:12;6.43;;;3.17;;
2602;SDS011;1311;47.966;7.958;2023-08-01T02:20:38;7.37;;;3.37;;
2602;SDS011;1311;47.966;7.958;2023-08-01T02:23:05;8.53;;;3.30;;
2602;SDS011;1311;47.966;7.958;2023-08-01T02:25:31;4.70;;;3.00;;
2602;SDS011;1311;47.966;7.958;2023-08-01T02:27:58;4.63;;;2.87;;
2602;SDS011;1311;47.966;7.958;2023-08-01T02:30:26;6.43;;;3.30;;
2602;SDS011;1311;47.966;7.958;2023-08-01T02:32:54;4.50;;;3.10;;
2602;SDS011;1311;47.966;7.958;2023-08-01T02:35:20;5.03;;;3.03;;
2602;SDS011;1311;47.966;7.958;2023-08-01T02:37:47;7.80;;;3.27;;
2602;SDS011;1311;47.966;7.958;2023-08-01T02:40:14;6.10;;;3.17;;
2602;SDS011;1311;47.966;7.958;2023-08-01T02:42:41;6.23;;;3.20;;
2602;SDS011;1311;47.966;7.958;2023-08-01T02:45:08;4.20;;;3.17;;
2602;SDS011;1311;47.966;7.958;2023-08-01T02:47:36;5.77;;;3.20;;
2602;SDS011;1311;47.966;7.958;2023-08-01T02:50:03;5.17;;;3.00;;
2602;SDS011;1311;47.966;7.958;2023-08-01T02:52:31;5.17;;;2.93;;
2602;SDS011;1311;47.966;7.958;2023-08-01T02:54:57;4.47;;;2.53;;
2602;SDS011;1311;47.966;7.958;2023-08-01T02:57:24;5.20;;;3.53;;
2602;SDS011;1311;47.966;7.958;2023-08-01T02:59:51;6.20;;;3.17;;
2602;SDS011;1311;47.966;7.958;2023-08-01T03:02:18;5.50;;;2.87;;
2602;SDS011;1311;47.966;7.958;2023-08-01T03:04:47;5.30;;;3.30;;
2602;SDS011;1311;47.966;7.958;2023-08-01T03:07:13;3.37;;;2.80;;
2602;SDS011;1311;47.966;7.958;2023-08-01T03:09:40;4.40;;;3.53;;
2602;SDS011;1311;47.966;7.958;2023-08-01T03:12:08;5.27;;;3.07;;
2602;SDS011;1311;47.966;7.958;2023-08-01T03:14:34;4.20;;;3.20;;
2602;SDS011;1311;47.966;7.958;2023-08-01T03:17:01;4.53;;;2.67;;
2602;SDS011;1311;47.966;7.958;2023-08-01T03:19:28;4.33;;;2.93;;
2602;SDS011;1311;47.966;7.958;2023-08-01T03:21:56;4.30;;;2.67;;
2602;SDS011;1311;47.966;7.958;2023-08-01T03:24:23;3.70;;;2.90;;
2602;SDS011;1311;47.966;7.958;2023-08-01T03:26:50;4.07;;;3.13;;
2602;SDS011;1311;47.966;7.958;2023-08-01T03:29:17;6.20;;;3.10;;
2602;SDS011;1311;47.966;7.958;2023-08-01T03:31:43;5.80;;;3.07;;
2602;SDS011;1311;47.966;7.958;2023-08-01T03:34:10;5.10;;;3.00;;
2602;SDS011;1311;47.966;7.958;2023-08-01T03:36:37;4.20;;;2.70;;
2602;SDS011;1311;47.966;7.958;2023-08-01T03:39:05;5.30;;;3.30;;
2602;SDS011;1311;47.966;7.958;2023-08-01T03:41:34;5.37;;;3.10;;
2602;SDS011;1311;47.966;7.958;2023-08-01T03:44:01;5.00;;;2.90;;
2602;SDS011;1311;47.966;7.958;2023-08-01T03:46:28;5.43;;;3.60;;
2602;SDS011;1311;47.966;7.958;2023-08-01T03:48:55;4.20;;;2.73;;
2602;SDS011;1311;47.966;7.958;2023-08-01T03:51:22;3.50;;;2.93;;
2602;SDS011;1311;47.966;7.958;2023-08-01T03:53:49;4.07;;;3.10;;
2602;SDS011;1311;47.966;7.958;2023-08-01T03:56:17;5.97;;;3.47;;
2602;SDS011;1311;47.966;7.958;2023-08-01T03:58:44;5.53;;;3.47;;
2602;SDS011;1311;47.966;7.958;2023-08-01T04:01:10;5.90;;;3.17;;
2602;SDS011;1311;47.966;7.958;2023-08-01T04:03:38;6.70;;;3.37;;
2602;SDS011;1311;47.966;7.958;2023-08-01T04:06:05;4.13;;;3.00;;
2602;SDS011;1311;47.966;7.958;2023-08-01T04:08:31;4.50;;;2.77;;
2602;SDS011;1311;47.966;7.958;2023-08-01T04:10:58;6.20;;;3.23;;
2602;SDS011;1311;47.966;7.958;2023-08-01T04:13:26;5.67;;;3.37;;
2602;SDS011;1311;47.966;7.958;2023-08-01T04:15:53;5.57;;;3.63;;
2602;SDS011;1311;47.966;7.958;2023-08-01T04:18:20;6.10;;;2.73;;
2602;SDS011;1311;47.966;7.958;2023-08-01T04:20:46;8.57;;;3.40;;
2602;SDS011;1311;47.966;7.958;2023-08-01T04:23:13;3.90;;;2.90;;
2602;SDS011;1311;47.966;7.958;2023-08-01T04:25:40;5.67;;;3.10;;
2602;SDS011;1311;47.966;7.958;2023-08-01T04:28:08;5.70;;;3.40;;
2602;SDS011;1311;47.966;7.958;2023-08-01T04:30:36;5.80;;;3.80;;
2602;SDS011;1311;47.966;7.958;2023-08-01T04:33:03;3.80;;;3.00;;
2602;SDS011;1311;47.966;7.958;2023-08-01T04:35:30;5.33;;;3.57;;
2602;SDS011;1311;47.966;7.958;2023-08-01T04:37:57;5.73;;;3.40;;
2602;SDS011;1311;47.966;7.958;2023-08-01T04:40:24;6.13;;;3.27;;
2602;SDS011;1311;47.966;7.958;2023-08-01T04:42:50;6.30;;;3.67;;
2602;SDS011;1311;47.966;7.958;2023-08-01T04:45:17;4.53;;;3.03;;
2602;SDS011;1311;47.966;7.958;2023-08-01T04:47:45;4.30;;;3.73;;
2602;SDS011;1311;47.966;7.958;2023-08-01T04:50:12;5.20;;;3.43;;
2602;SDS011;1311;47.966;7.958;2023-08-01T04:52:39;6.00;;;3.60;;
2602;SDS011;1311;47.966;7.958;2023-08-01T04:55:06;5.60;;;3.73;;
2602;SDS011;1311;47.966;7.958;2023-08-01T04:57:33;4.97;;;3.50;;
2602;SDS011;1311;47.966;7.958;2023-08-01T05:00:00;6.20;;;3.83;;
2602;SDS011;1311;47.966;7.958;2023-08-01T05:02:26;3.57;;;3.20;;
2602;SDS011;1311;47.966;7.958;2023-08-01T05:04:55;7.23;;;3.53;;
2602;SDS011;1311;47.966;7.958;2023-08-01T05:07:21;6.33;;;3.70;;
2602;SDS011;1311;47.966;7.958;2023-08-01T05:09:48;4.90;;;3.47;;
2602;SDS011;1311;47.966;7.958;2023-08-01T05:12:15;4.73;;;3.47;;
2602;SDS011;1311;47.966;7.958;2023-08-01T05:14:42;5.87;;;3.60;;
2602;SDS011;1311;47.966;7.958;2023-08-01T05:17:08;4.73;;;3.57;;
2602;SDS011;1311;47.966;7.958;2023-08-01T05:19:35;4.50;;;3.50;;
2602;SDS011;1311;47.966;7.958;2023-08-01T05:22:03;4.50;;;3.27;;
2602;SDS011;1311;47.966;7.958;2023-08-01T05:24:30;5.03;;;3.33;;
2602;SDS011;1311;47.966;7.958;2023-08-01T05:26:57;5.43;;;3.40;;
2602;SDS011;1311;47.966;7.958;2023-08-01T05:29:24;5.40;;;3.90;;
2602;SDS011;1311;47.966;7.958;2023-08-01T05:31:51;8.20;;;4.30;;
2602;SDS011;1311;47.966;7.958;2023-08-01T05:34:17;6.50;;;3.73;;
2602;SDS011;1311;47.966;7.958;2023-08-01T05:36:44;5.40;;;4.03;;
2602;SDS011;1311;47.966;7.958;2023-08-01T05:39:12;5.87;;;4.40;;
2602;SDS011;1311;47.966;7.958;2023-08-01T05:41:39;6.93;;;4.90;;
2602;SDS011;1311;47.966;7.958;2023-08-01T05:44:05;8.13;;;4.97;;
2602;SDS011;1311;47.966;7.958;2023-08-01T05:46:32;7.63;;;5.17;;
2602;SDS011;1311;47.966;7.958;2023-08-01T05:52:01;7.30;;;4.70;;
2602;SDS011;1311;47.966;7.958;2023-08-01T05:54:29;8.87;;;5.03;;
2602;SDS011;1311;47.966;7.958;2023-08-01T05:56:56;6.13;;;4.80;;
2602;SDS011;1311;47.966;7.958;2023-08-01T05:59:22;7.03;;;4.90;;
2602;SDS011;1311;47.966;7.958;2023-08-01T06:01:49;6.80;;;4.90;;
2602;SDS011;1311;47.966;7.958;2023-08-01T06:04:16;4.63;;;3.53;;
2602;SDS011;1311;47.966;7.958;2023-08-01T06:06:43;5.60;;;4.30;;
2602;SDS011;1311;47.966;7.958;2023-08-01T06:09:09;4.93;;;3.97;;
2602;SDS011;1311;47.966;7.958;2023-08-01T06:11:37;4.70;;;3.50;;
2602;SDS011;1311;47.966;7.958;2023-08-01T06:14:04;4.33;;;3.83;;
2602;SDS011;1311;47.966;7.958;2023-08-01T06:16:31;6.80;;;3.60;;
2602;SDS011;1311;47.966;7.958;2023-08-01T06:18:58;4.00;;;3.23;;
2602;SDS011;1311;47.966;7.958;2023-08-01T06:21:25;5.83;;;3.60;;
2602;SDS011;1311;47.966;7.958;2023-08-01T06:23:52;3.80;;;3.40;;
2602;SDS011;1311;47.966;7.958;2023-08-01T06:26:18;5.77;;;4.03;;
2602;SDS011;1311;47.966;7.958;2023-08-01T06:28:46;4.63;;;3.40;;
2602;SDS011;1311;47.966;7.958;2023-08-01T06:31:13;3.70;;;3.00;;
2602;SDS011;1311;47.966;7.958;2023-08-01T06:33:40;8.10;;;4.10;;
2602;SDS011;1311;47.966;7.958;2023-08-01T06:36:07;4.60;;;2.90;;
2602;SDS011;1311;47.966;7.958;2023-08-01T06:38:33;3.13;;;2.80;;
2602;SDS011;1311;47.966;7.958;2023-08-01T06:41:00;4.10;;;2.90;;
2602;SDS011;1311;47.966;7.958;2023-08-01T06:43:28;4.30;;;2.93;;
2602;SDS011;1311;47.966;7.958;2023-08-01T06:45:56;4.10;;;3.13;;
2602;SDS011;1311;47.966;7.958;2023-08-01T06:48:22;3.93;;;3.07;;
2602;SDS011;1311;47.966;7.958;2023-08-01T06:50:49;3.07;;;2.20;;
2602;SDS011;1311;47.966;7.958;2023-08-01T06:53:16;3.00;;;2.60;;
2602;SDS011;1311;47.966;7.958;2023-08-01T06:55:43;4.03;;;2.83;;
2602;SDS011;1311;47.966;7.958;2023-08-01T06:58:10;2.83;;;2.23;;
2602;SDS011;1311;47.966;7.958;2023-08-01T07:00:36;3.33;;;2.30;;
2602;SDS011;1311;47.966;7.958;2023-08-01T07:03:04;2.70;;;2.13;;
2602;SDS011;1311;47.966;7.958;2023-08-01T07:05:31;4.07;;;2.40;;
2602;SDS011;1311;47.966;7.958;2023-08-01T07:07:58;4.13;;;2.60;;
2602;SDS011;1311;47.966;7.958;2023-08-01T07:10:25;4.37;;;2.97;;
2602;SDS011;1311;47.966;7.958;2023-08-01T07:12:52;3.03;;;2.60;;
2602;SDS011;1311;47.966;7.958;2023-08-01T07:15:19;2.87;;;2.17;;
2602;SDS011;1311;47.966;7.958;2023-08-01T07:17:45;3.73;;;2.40;;
2602;SDS011;1311;47.966;7.958;2023-08-01T07:20:13;2.33;;;2.13;;
2602;SDS011;1311;47.966;7.958;2023-08-01T07:22:40;3.73;;;2.10;;
2602;SDS011;1311;47.966;7.958;2023-08-01T07:25:07;2.17;;;1.83;;
2602;SDS011;1311;47.966;7.958;2023-08-01T07:27:36;2.13;;;1.90;;
2602;SDS011;1311;47.966;7.958;2023-08-01T07:30:04;2.33;;;1.93;;
2602;SDS011;1311;47.966;7.958;2023-08-01T07:32:31;2.40;;;1.80;;
2602;SDS011;1311;47.966;7.958;2023-08-01T07:34:58;2.40;;;2.10;;
2602;SDS011;1311;47.966;7.958;2023-08-01T07:37:26;4.50;;;1.93;;
2602;SDS011;1311;47.966;7.958;2023-08-01T07:39:53;2.00;;;1.60;;
2602;SDS011;1311;47.966;7.958;2023-08-01T07:42:20;2.07;;;1.80;;
2602;SDS011;1311;47.966;7.958;2023-08-01T07:44:47;2.50;;;1.80;;
2602;SDS011;1311;47.966;7.958;2023-08-01T07:47:14;4.70;;;1.30;;
2602;SDS011;1311;47.966;7.958;2023-08-01T07:49:41;2.80;;;1.20;;
2602;SDS011;1311;47.966;7.958;2023-08-01T07:52:08;2.80;;;1.30;;
2602;SDS011;1311;47.966;7.958;2023-08-01T07:54:36;1.87;;;1.20;;
2602;SDS011;1311;47.966;7.958;2023-08-01T07:57:03;2.10;;;1.10;;
2602;SDS011;1311;47.966;7.958;2023-08-01T07:59:30;1.23;;;0.90;;
2602;SDS011;1311;47.966;7.958;2023-08-01T08:01:57;1.43;;;1.10;;
2602;SDS011;1311;47.966;7.958;2023-08-01T08:04:24;1.20;;;0.90;;
2602;SDS011;1311;47.966;7.958;2023-08-01T08:06:50;2.77;;;1.20;;
2602;SDS011;1311;47.966;7.958;2023-08-01T08:09:19;1.03;;;0.90;;
2602;SDS011;1311;47.966;7.958;2023-08-01T08:11:49;1.90;;;1.13;;
2602;SDS011;1311;47.966;7.958;2023-08-01T08:14:17;2.13;;;1.07;;
2602;SDS011;1311;47.966;7.958;2023-08-01T08:16:45;1.63;;;1.20;;
2602;SDS011;1311;47.966;7.958;2023-08-01T08:19:12;1.53;;;1.00;;
2602;SDS011;1311;47.966;7.958;2023-08-01T08:21:39;1.50;;;1.07;;
2602;SDS011;1311;47.966;7.958;2023-08-01T08:24:05;1.20;;;0.90;;
2602;SDS011;1311;47.966;7.958;2023-08-01T08:26:32;3.03;;;1.30;;
2602;SDS011;1311;47.966;7.958;2023-08-01T08:29:03;1.80;;;1.27;;
2602;SDS011;1311;47.966;7.958;2023-08-01T08:31:30;1.70;;;1.00;;
2602;SDS011;1311;47.966;7.958;2023-08-01T08:33:57;1.80;;;1.10;;
2602;SDS011;1311;47.966;7.958;2023-08-01T08:36:24;1.50;;;1.00;;
2602;SDS011;1311;47.966;7.958;2023-08-01T08:38:51;1.93;;;0.90;;
2602;SDS011;1311;47.966;7.958;2023-08-01T08:41:19;0.73;;;0.73;;
2602;SDS011;1311;47.966;7.958;2023-08-01T08:43:47;1.77;;;1.30;;
2602;SDS011;1311;47.966;7.958;2023-08-01T08:46:16;1.57;;;1.20;;
2602;SDS011;1311;47.966;7.958;2023-08-01T08:48:44;1.10;;;1.00;;
2602;SDS011;1311;47.966;7.958;2023-08-01T08:51:12;1.90;;;0.90;;
2602;SDS011;1311;47.966;7.958;2023-08-01T08:53:40;1.80;;;1.10;;
2602;SDS011;1311;47.966;7.958;2023-08-01T08:56:08;3.67;;;1.43;;
2602;SDS011;1311;47.966;7.958;2023-08-01T08:58:35;1.73;;;1.20;;
2602;SDS011;1311;47.966;7.958;2023-08-01T09:01:04;1.07;;;0.97;;
2602;SDS011;1311;47.966;7.958;2023-08-01T09:03:34;1.37;;;1.17;;
2602;SDS011;1311;47.966;7.958;2023-08-01T09:06:02;1.50;;;1.10;;
2602;SDS011;1311;47.966;7.958;2023-08-01T09:08:34;1.33;;;1.20;;
2602;SDS011;1311;47.966;7.958;2023-08-01T09:11:02;1.50;;;1.40;;
2602;SDS011;1311;47.966;7.958;2023-08-01T09:13:29;1.87;;;1.10;;
2602;SDS011;1311;47.966;7.958;2023-08-01T09:15:56;2.83;;;1.20;;
2602;SDS011;1311;47.966;7.958;2023-08-01T09:18:23;2.17;;;1.40;;
2602;SDS011;1311;47.966;7.958;2023-08-01T09:20:52;2.80;;;1.70;;
2602;SDS011;1311;47.966;7.958;2023-08-01T09:23:19;1.20;;;1.10;;
2602;SDS011;1311;47.966;7.958;2023-08-01T09:25:45;1.43;;;1.30;;
2602;SDS011;1311;47.966;7.958;2023-08-01T09:28:16;1.63;;;1.43;;
2602;SDS011;1311;47.966;7.958;2023-08-01T09:30:47;2.17;;;1.40;;
2602;SDS011;1311;47.966;7.958;2023-08-01T09:33:15;1.70;;;1.07;;
2602;SDS011;1311;47.966;7.958;2023-08-01T09:35:42;1.93;;;1.30;;
2602;SDS011;1311;47.966;7.958;2023-08-01T09:38:12;1.40;;;1.30;;
2602;SDS011;1311;47.966;7.958;2023-08-01T09:40:40;1.50;;;1.20;;
2602;SDS011;1311;47.966;7.958;2023-08-01T09:43:07;2.00;;;1.43;;
2602;SDS011;1311;47.966;7.958;2023-08-01T09:45:34;2.23;;;1.30;;
2602;SDS011;1311;47.966;7.958;2023-08-01T09:48:01;1.73;;;1.63;;
2602;SDS011;1311;47.966;7.958;2023-08-01T09:50:28;1.30;;;1.17;;
2602;SDS011;1311;47.966;7.958;2023-08-01T09:52:55;1.80;;;1.40;;
2602;SDS011;1311;47.966;7.958;2023-08-01T09:55:34;1.40;;;1.23;;
2602;SDS011;1311;47.966;7.958;2023-08-01T09:58:01;1.80;;;1.10;;
2602;SDS011;1311;47.966;7.958;2023-08-01T10:00:28;1.13;;;1.03;;
2602;SDS011;1311;47.966;7.958;2023-08-01T10:02:56;1.40;;;1.20;;
2602;SDS011;1311;47.966;7.958;2023-08-01T10:05:25;1.80;;;1.30;;
2602;SDS011;1311;47.966;7.958;2023-08-01T10:07:55;1.37;;;1.20;;
2602;SDS011;1311;47.966;7.958;2023-08-01T10:10:24;2.30;;;1.40;;
2602;SDS011;1311;47.966;7.958;2023-08-01T10:12:52;2.40;;;1.20;;
2602;SDS011;1311;47.966;7.958;2023-08-01T10:15:20;1.83;;;1.30;;
2602;SDS011;1311;47.966;7.958;2023-08-01T10:17:47;1.63;;;1.27;;
2602;SDS011;1311;47.966;7.958;2023-08-01T10:20:14;1.60;;;1.50;;
2602;SDS011;1311;47.966;7.958;2023-08-01T10:22:41;1.90;;;1.50;;
2602;SDS011;1311;47.966;7.958;2023-08-01T10:25:09;2.77;;;1.40;;
2602;SDS011;1311;47.966;7.958;2023-08-01T10:27:38;1.40;;;1.30;;
2602;SDS011;1311;47.966;7.958;2023-08-01T10:30:07;3.20;;;1.83;;
2602;SDS011;1311;47.966;7.958;2023-08-01T10:32:36;4.70;;;1.43;;
2602;SDS011;1311;47.966;7.958;2023-08-01T10:35:04;1.30;;;1.20;;
2602;SDS011;1311;47.966;7.958;2023-08-01T10:37:41;2.17;;;1.60;;
2602;SDS011;1311;47.966;7.958;2023-08-01T10:40:09;1.80;;;1.40;;
2602;SDS011;1311;47.966;7.958;2023-08-01T10:42:37;1.33;;;1.13;;
2602;SDS011;1311;47.966;7.958;2023-08-01T10:45:05;1.90;;;1.50;;
2602;SDS011;1311;47.966;7.958;2023-08-01T10:47:33;1.60;;;1.50;;
2602;SDS011;1311;47.966;7.958;2023-08-01T10:50:00;1.30;;;1.10;;
2602;SDS011;1311;47.966;7.958;2023-08-01T10:52:28;1.33;;;1.07;;
2602;SDS011;1311;47.966;7.958;2023-08-01T10:54:55;1.40;;;1.17;;
2602;SDS011;1311;47.966;7.958;2023-08-01T10:57:24;2.13;;;1.07;;
2602;SDS011;1311;47.966;7.958;2023-08-01T10:59:52;3.23;;;1.37;;
2602;SDS011;1311;47.966;7.958;2023-08-01T11:02:22;1.80;;;1.40;;
2602;SDS011;1311;47.966;7.958;2023-08-01T11:04:58;1.40;;;1.30;;
2602;SDS011;1311;47.966;7.958;2023-08-01T11:07:25;2.30;;;1.87;;
2602;SDS011;1311;47.966;7.958;2023-08-01T11:10:02;1.83;;;1.10;;
2602;SDS011;1311;47.966;7.958;2023-08-01T11:12:30;1.30;;;1.20;;
2602;SDS011;1311;47.966;7.958;2023-08-01T11:14:59;1.40;;;1.23;;
2602;SDS011;1311;47.966;7.958;2023-08-01T11:17:26;2.00;;;1.20;;
2602;SDS011;1311;47.966;7.958;2023-08-01T11:20:01;2.93;;;1.30;;
2602;SDS011;1311;47.966;7.958;2023-08-01T11:22:29;3.33;;;1.10;;
2602;SDS011;1311;47.966;7.958;2023-08-01T11:24:56;1.60;;;1.23;;
2602;SDS011;1311;47.966;7.958;2023-08-01T11:27:23;1.10;;;1.00;;
2602;SDS011;1311;47.966;7.958;2023-08-01T11:29:50;1.37;;;1.00;;
2602;SDS011;1311;47.966;7.958;2023-08-01T11:32:17;1.73;;;1.30;;
2602;SDS011;1311;47.966;7.958;2023-08-01T11:34:45;1.50;;;1.20;;
2602;SDS011;1311;47.966;7.958;2023-08-01T11:37:14;1.13;;;0.90;;
2602;SDS011;1311;47.966;7.958;2023-08-01T11:39:44;1.33;;;1.03;;
2602;SDS011;1311;47.966;7.958;2023-08-01T11:42:14;1.20;;;1.10;;
2602;SDS011;1311;47.966;7.958;2023-08-01T11:44:42;1.83;;;1.10;;
2602;SDS011;1311;47.966;7.958;2023-08-01T11:47:10;1.37;;;1.07;;
2602;SDS011;1311;47.966;7.958;2023-08-01T11:49:38;1.23;;;1.07;;
2602;SDS011;1311;47.966;7.958;2023-08-01T11:52:05;0.93;;;0.80;;
2602;SDS011;1311;47.966;7.958;2023-08-01T11:54:44;1.87;;;0.90;;
2602;SDS011;1311;47.966;7.958;2023-08-01T11:57:11;1.10;;;0.83;;
2602;SDS011;1311;47.966;7.958;2023-08-01T11:59:45;1.07;;;0.70;;
2602;SDS011;1311;47.966;7.958;2023-08-01T12:02:20;1.20;;;1.03;;
2602;SDS011;1311;47.966;7.958;2023-08-01T12:04:47;1.13;;;0.70;;
2602;SDS011;1311;47.966;7.958;2023-08-01T12:07:14;0.80;;;0.80;;
2602;SDS011;1311;47.966;7.958;2023-08-01T12:09:42;0.80;;;0.60;;
2602;SDS011;1311;47.966;7.958;2023-08-01T12:12:10;0.97;;;0.50;;
2602;SDS011;1311;47.966;7.958;2023-08-01T12:14:40;0.80;;;0.63;;
2602;SDS011;1311;47.966;7.958;2023-08-01T12:17:07;0.77;;;0.70;;
2602;SDS011;1311;47.966;7.958;2023-08-01T12:19:34;0.70;;;0.57;;
2602;SDS011;1311;47.966;7.958;2023-08-01T12:22:01;0.60;;;0.50;;
2602;SDS011;1311;47.966;7.958;2023-08-01T12:24:28;0.80;;;0.60;;
2602;SDS011;1311;47.966;7.958;2023-08-01T12:26:54;0.90;;;0.77;;
2602;SDS011;1311;47.966;7.958;2023-08-01T12:29:22;0.60;;;0.60;;
2602;SDS011;1311;47.966;7.958;2023-08-01T12:31:49;0.60;;;0.50;;
2602;SDS011;1311;47.966;7.958;2023-08-01T12:34:16;0.97;;;0.70;;
2602;SDS011;1311;47.966;7.958;2023-08-01T12:36:43;0.60;;;0.50;;
2602;SDS011;1311;47.966;7.958;2023-08-01T12:39:10;0.70;;;0.50;;
2602;SDS011;1311;47.966;7.958;2023-08-01T12:41:37;0.70;;;0.60;;
2602;SDS011;1311;47.966;7.958;2023-08-01T12:44:04;0.60;;;0.40;;
2602;SDS011;1311;47.966;7.958;2023-08-01T12:46:32;0.70;;;0.40;;
2602;SDS011;1311;47.966;7.958;2023-08-01T12:48:59;0.77;;;0.60;;
2602;SDS011;1311;47.966;7.958;2023-08-01T12:51:27;0.60;;;0.50;;
2602;SDS011;1311;47.966;7.958;2023-08-01T12:53:54;0.60;;;0.57;;
2602;SDS011;1311;47.966;7.958;2023-08-01T12:56:21;0.77;;;0.50;;
2602;SDS011;1311;47.966;7.958;2023-08-01T12:58:47;0.90;;;0.70;;
2602;SDS011;1311;47.966;7.958;2023-08-01T13:01:14;0.70;;;0.60;;
2602;SDS011;1311;47.966;7.958;2023-08-01T13:03:42;0.90;;;0.80;;
2602;SDS011;1311;47.966;7.958;2023-08-01T13:06:10;2.53;;;0.60;;
2602;SDS011;1311;47.966;7.958;2023-08-01T13:08:37;1.77;;;0.60;;
2602;SDS011;1311;47.966;7.958;2023-08-01T13:11:09;0.67;;;0.57;;
2602;SDS011;1311;47.966;7.958;2023-08-01T13:13:37;0.83;;;0.70;;
2602;SDS011;1311;47.966;7.958;2023-08-01T13:16:04;1.70;;;0.93;;
2602;SDS011;1311;47.966;7.958;2023-08-01T13:18:31;0.80;;;0.70;;
2602;SDS011;1311;47.966;7.958;2023-08-01T13:20:59;0.70;;;0.60;;
2602;SDS011;1311;47.966;7.958;2023-08-01T13:23:26;0.80;;;0.80;;
2602;SDS011;1311;47.966;7.958;2023-08-01T13:25:54;0.80;;;0.60;;
2602;SDS011;1311;47.966;7.958;2023-08-01T13:28:21;1.07;;;0.60;;
2602;SDS011;1311;47.966;7.958;2023-08-01T13:30:47;0.70;;;0.60;;
2602;SDS011;1311;47.966;7.958;2023-08-01T13:33:14;0.60;;;0.60;;
2602;SDS011;1311;47.966;7.958;2023-08-01T13:35:41;0.70;;;0.60;;
2602;SDS011;1311;47.966;7.958;2023-08-01T13:38:09;1.23;;;0.70;;
2602;SDS011;1311;47.966;7.958;2023-08-01T13:40:37;1.30;;;1.00;;
2602;SDS011;1311;47.966;7.958;2023-08-01T13:43:04;2.17;;;1.00;;
2602;SDS011;1311;47.966;7.958;2023-08-01T13:45:31;2.77;;;1.00;;
2602;SDS011;1311;47.966;7.958;2023-08-01T13:47:58;2.07;;;1.10;;
2602;SDS011;1311;47.966;7.958;2023-08-01T13:50:25;1.20;;;0.77;;
2602;SDS011;1311;47.966;7.958;2023-08-01T13:52:51;1.37;;;0.70;;
2602;SDS011;1311;47.966;7.958;2023-08-01T13:55:20;1.10;;;0.90;;
2602;SDS011;1311;47.966;7.958;2023-08-01T13:57:46;1.37;;;1.00;;
2602;SDS011;1311;47.966;7.958;2023-08-01T14:00:13;1.43;;;0.83;;
2602;SDS011;1311;47.966;7.958;2023-08-01T14:02:40;1.60;;;0.97;;
2602;SDS011;1311;47.966;7.958;2023-08-01T14:05:07;1.03;;;0.67;;
2602;SDS011;1311;47.966;7.958;2023-08-01T14:07:35;1.43;;;1.10;;
2602;SDS011;1311;47.966;7.958;2023-08-01T14:10:02;2.37;;;1.00;;
2602;SDS011;1311;47.966;7.958;2023-08-01T14:12:31;1.43;;;1.00;;
2602;SDS011;1311;47.966;7.958;2023-08-01T14:14:57;1.20;;;0.90;;
2602;SDS011;1311;47.966;7.958;2023-08-01T14:17:24;1.20;;;0.80;;
2602;SDS011;1311;47.966;7.958;2023-08-01T14:19:51;1.23;;;1.10;;
2602;SDS011;1311;47.966;7.958;2023-08-01T14:22:18;0.90;;;0.80;;
2602;SDS011;1311;47.966;7.958;2023-08-01T14:24:44;1.10;;;0.93;;
2602;SDS011;1311;47.966;7.958;2023-08-01T14:27:11;1.10;;;1.00;;
2602;SDS011;1311;47.966;7.958;2023-08-01T14:29:39;0.80;;;0.70;;
2602;SDS011;1311;47.966;7.958;2023-08-01T14:32:07;1.43;;;1.00;;
2602;SDS011;1311;47.966;7.958;2023-08-01T14:34:33;0.90;;;0.80;;
2602;SDS011;1311;47.966;7.958;2023-08-01T14:37:00;0.97;;;0.67;;
2602;SDS011;1311;47.966;7.958;2023-08-01T14:39:27;1.13;;;0.80;;
2602;SDS011;1311;47.966;7.958;2023-08-01T14:41:55;0.90;;;0.70;;
2602;SDS011;1311;47.966;7.958;2023-08-01T14:44:21;0.93;;;0.77;;
2602;SDS011;1311;47.966;7.958;2023-08-01T14:46:50;1.07;;;0.90;;
2602;SDS011;1311;47.966;7.958;2023-08-01T14:49:19;1.10;;;0.90;;
2602;SDS011;1311;47.966;7.958;2023-08-01T14:51:46;1.30;;;1.20;;
2602;SDS011;1311;47.966;7.958;2023-08-01T14:54:14;0.70;;;0.70;;
2602;SDS011;1311;47.966;7.958;2023-08-01T14:56:41;1.00;;;0.90;;
2602;SDS011;1311;47.966;7.958;2023-08-01T14:59:08;1.27;;;0.90;;
2602;SDS011;1311;47.966;7.958;2023-08-01T15:01:35;1.47;;;1.10;;
2602;SDS011;1311;47.966;7.958;2023-08-01T15:04:03;1.30;;;1.00;;
2602;SDS011;1311;47.966;7.958;2023-08-01T15:06:30;1.20;;;1.10;;
2602;SDS011;1311;47.966;7.958;2023-08-01T15:08:57;1.20;;;1.03;;
2602;SDS011;1311;47.966;7.958;2023-08-01T15:11:23;1.00;;;0.90;;
2602;SDS011;1311;47.966;7.958;2023-08-01T15:13:50;1.23;;;1.13;;
2602;SDS011;1311;47.966;7.958;2023-08-01T15:16:17;1.07;;;0.97;;
2602;SDS011;1311;47.966;7.958;2023-08-01T15:18:44;1.47;;;0.97;;